createdAt,value
2022-08-24T00:00:14.899Z,35
2022-08-24T00:00:44.529Z,34
2022-08-24T00:01:14.992Z,34
2022-08-24T00:01:46.638Z,35
2022-08-24T00:02:17.524Z,34
2022-08-24T00:02:53.572Z,35
2022-08-24T00:03:22.714Z,35
2022-08-24T00:03:54.266Z,35
2022-08-24T00:04:23.061Z,35
2022-08-24T00:04:52.746Z,35
2022-08-24T00:05:23.093Z,35
2022-08-24T00:05:56.083Z,35
2022-08-24T00:06:25.489Z,35
2022-08-24T00:06:56.245Z,35
2022-08-24T00:07:28.157Z,35
2022-08-24T00:08:44.848Z,35
2022-08-24T00:09:12.519Z,35
2022-08-24T00:09:32.333Z,35
2022-08-24T00:10:06.380Z,35
2022-08-24T00:10:33.228Z,35
2022-08-24T00:11:04.512Z,35
2022-08-24T00:11:35.225Z,35
2022-08-24T00:12:06.746Z,35
2022-08-24T00:12:37.707Z,35
2022-08-24T00:13:08.081Z,35
2022-08-24T00:13:39.839Z,35
2022-08-24T00:14:11.532Z,35
2022-08-24T00:14:42.295Z,35
2022-08-24T00:15:14.130Z,35
2022-08-24T00:15:44.506Z,35
2022-08-24T00:16:18.215Z,35
2022-08-24T00:16:52.657Z,35
2022-08-24T00:17:16.658Z,35
2022-08-24T00:17:51.895Z,35
2022-08-24T00:18:23.293Z,35
2022-08-24T00:18:50.908Z,35
2022-08-24T00:19:22.671Z,35
2022-08-24T00:19:53.951Z,35
2022-08-24T00:20:23.895Z,35
2022-08-24T00:20:53.487Z,35
2022-08-24T00:21:26.995Z,35
2022-08-24T00:21:55.351Z,35
2022-08-24T00:22:30.267Z,35
2022-08-24T00:22:58.133Z,35
2022-08-24T00:23:32.870Z,35
2022-08-24T00:24:03.559Z,35
2022-08-24T00:24:31.898Z,35
2022-08-24T00:25:05.298Z,35
2022-08-24T00:25:40.038Z,35
2022-08-24T00:26:03.362Z,35
2022-08-24T00:26:34.650Z,35
2022-08-24T00:27:05.562Z,35
2022-08-24T00:27:39.384Z,35
2022-08-24T00:28:09.299Z,35
2022-08-24T00:28:39.447Z,35
2022-08-24T00:29:10.119Z,35
2022-08-24T00:29:43.230Z,35
2022-08-24T00:30:14.866Z,35
2022-08-24T00:30:55.835Z,35
2022-08-24T00:31:17.268Z,35
2022-08-24T00:31:45.606Z,35
2022-08-24T00:32:15.697Z,35
2022-08-24T00:32:47.112Z,35
2022-08-24T00:33:17.753Z,35
2022-08-24T00:33:49.299Z,35
2022-08-24T00:34:20.085Z,35
2022-08-24T00:34:58.881Z,35
2022-08-24T00:35:23.635Z,35
2022-08-24T00:35:55.685Z,35
2022-08-24T00:36:33.805Z,35
2022-08-24T00:36:55.087Z,35
2022-08-24T00:37:26.096Z,35
2022-08-24T00:38:01.299Z,35
2022-08-24T00:38:29.758Z,35
2022-08-24T00:38:58.991Z,35
2022-08-24T00:39:29.587Z,35
2022-08-24T00:40:01.478Z,35
2022-08-24T00:40:33.373Z,35
2022-08-24T00:41:08.234Z,35
2022-08-24T00:41:33.691Z,35
2022-08-24T00:42:07.634Z,35
2022-08-24T00:42:35.532Z,35
2022-08-24T00:43:06.492Z,35
2022-08-24T00:43:37.690Z,35
2022-08-24T00:44:08.696Z,35
2022-08-24T00:44:39.485Z,35
2022-08-24T00:45:11.102Z,35
2022-08-24T00:45:43.103Z,35
2022-08-24T00:46:13.826Z,35
2022-08-24T00:46:44.634Z,35
2022-08-24T00:47:14.910Z,35
2022-08-24T00:47:47.653Z,35
2022-08-24T00:48:16.262Z,35
2022-08-24T00:48:47.647Z,35
2022-08-24T00:49:18.555Z,35
2022-08-24T00:49:49.457Z,35
2022-08-24T00:50:37.459Z,35
2022-08-24T00:50:53.529Z,35
2022-08-24T00:51:54.278Z,35
2022-08-24T00:52:29.807Z,35
2022-08-24T00:52:55.660Z,35
2022-08-24T00:53:26.405Z,35
2022-08-24T00:53:57.744Z,35
2022-08-24T00:54:28.486Z,35
2022-08-24T00:54:59.654Z,35
2022-08-24T00:55:33.729Z,35
2022-08-24T00:56:04.729Z,35
2022-08-24T00:56:35.784Z,35
2022-08-24T00:57:05.144Z,35
2022-08-24T00:57:35.693Z,35
2022-08-24T00:58:06.067Z,35
2022-08-24T00:58:36.815Z,35
2022-08-24T00:59:07.540Z,35
2022-08-24T00:59:38.286Z,35
2022-08-24T01:00:16.860Z,35
2022-08-24T01:00:40.753Z,35
2022-08-24T01:01:11.654Z,35
2022-08-24T01:01:44.265Z,35
2022-08-24T01:02:15.792Z,35
2022-08-24T01:02:47.606Z,35
2022-08-24T01:03:18.703Z,35
2022-08-24T01:03:46.534Z,35
2022-08-24T01:04:19.490Z,35
2022-08-24T01:05:06.659Z,35
2022-08-24T01:05:23.213Z,35
2022-08-24T01:05:50.574Z,35
2022-08-24T01:06:22.909Z,35
2022-08-24T01:06:53.634Z,35
2022-08-24T01:07:24.032Z,35
2022-08-24T01:08:04.151Z,35
2022-08-24T01:08:26.040Z,35
2022-08-24T01:08:59.473Z,35
2022-08-24T01:09:27.697Z,35
2022-08-24T01:09:58.773Z,35
2022-08-24T01:10:29.568Z,35
2022-08-24T01:11:04.588Z,35
2022-08-24T01:11:33.918Z,35
2022-08-24T01:12:04.666Z,35
2022-08-24T01:12:34.409Z,35
2022-08-24T01:13:05.640Z,35
2022-08-24T01:13:38.400Z,35
2022-08-24T01:14:07.130Z,35
2022-08-24T01:15:08.929Z,35
2022-08-24T01:15:40.145Z,35
2022-08-24T01:16:10.691Z,35
2022-08-24T01:16:42.334Z,35
2022-08-24T01:17:14.580Z,35
2022-08-24T01:17:44.495Z,35
2022-08-24T01:18:15.382Z,35
2022-08-24T01:18:45.468Z,35
2022-08-24T01:19:17.720Z,35
2022-08-24T01:19:47.767Z,35
2022-08-24T01:20:23.270Z,35
2022-08-24T01:20:49.472Z,35
2022-08-24T01:21:37.947Z,35
2022-08-24T01:21:59.049Z,35
2022-08-24T01:22:24.088Z,35
2022-08-24T01:23:25.473Z,35
2022-08-24T01:23:56.016Z,35
2022-08-24T01:24:26.617Z,35
2022-08-24T01:24:57.624Z,35
2022-08-24T01:25:29.006Z,35
2022-08-24T01:25:59.421Z,35
2022-08-24T01:26:33.548Z,35
2022-08-24T01:27:01.982Z,35
2022-08-24T01:27:33.571Z,35
2022-08-24T01:28:07.021Z,35
2022-08-24T01:28:36.998Z,35
2022-08-24T01:29:08.104Z,35
2022-08-24T01:29:36.785Z,35
2022-08-24T01:30:08.678Z,35
2022-08-24T01:30:38.910Z,35
2022-08-24T01:31:09.546Z,35
2022-08-24T01:31:40.938Z,35
2022-08-24T01:32:12.017Z,35
2022-08-24T01:32:44.350Z,35
2022-08-24T01:33:15.984Z,35
2022-08-24T01:33:45.238Z,35
2022-08-24T01:34:15.901Z,35
2022-08-24T01:34:49.868Z,35
2022-08-24T01:35:21.115Z,35
2022-08-24T01:35:48.631Z,35
2022-08-24T01:36:19.824Z,35
2022-08-24T01:36:52.886Z,35
2022-08-24T01:37:25.110Z,35
2022-08-24T01:37:54.095Z,35
2022-08-24T01:38:24.200Z,35
2022-08-24T01:38:56.122Z,35
2022-08-24T01:39:25.989Z,35
2022-08-24T01:39:56.689Z,35
2022-08-24T01:40:27.930Z,35
2022-08-24T01:40:59.040Z,35
2022-08-24T01:41:29.865Z,35
2022-08-24T01:42:01.270Z,35
2022-08-24T01:42:31.647Z,35
2022-08-24T01:43:03.498Z,35
2022-08-24T01:43:37.280Z,35
2022-08-24T01:44:05.267Z,35
2022-08-24T01:44:38.530Z,35
2022-08-24T01:45:08.381Z,35
2022-08-24T01:45:41.240Z,35
2022-08-24T01:46:11.623Z,35
2022-08-24T01:46:39.613Z,35
2022-08-24T01:47:10.809Z,35
2022-08-24T01:47:41.642Z,35
2022-08-24T01:48:14.169Z,35
2022-08-24T01:48:45.059Z,35
2022-08-24T01:49:16.002Z,35
2022-08-24T01:49:48.728Z,35
2022-08-24T01:50:17.328Z,35
2022-08-24T01:51:18.663Z,35
2022-08-24T01:51:49.443Z,35
2022-08-24T01:52:20.700Z,35
2022-08-24T01:53:05.344Z,35
2022-08-24T01:53:22.704Z,35
2022-08-24T01:53:54.550Z,35
2022-08-24T01:54:25.353Z,35
2022-08-24T01:54:56.485Z,35
2022-08-24T01:55:26.611Z,35
2022-08-24T01:55:57.723Z,35
2022-08-24T01:56:29.002Z,35
2022-08-24T01:57:01.509Z,35
2022-08-24T01:57:30.916Z,35
2022-08-24T01:58:01.504Z,35
2022-08-24T01:58:33.260Z,35
2022-08-24T01:59:04.370Z,35
2022-08-24T01:59:35.018Z,35
2022-08-24T02:00:10.505Z,35
2022-08-24T02:00:36.664Z,35
2022-08-24T02:01:07.993Z,35
2022-08-24T02:01:38.559Z,35
2022-08-24T02:02:10.309Z,35
2022-08-24T02:02:46.406Z,35
2022-08-24T02:03:15.468Z,35
2022-08-24T02:03:45.993Z,35
2022-08-24T02:04:17.890Z,35
2022-08-24T02:04:45.678Z,35
2022-08-24T02:05:16.474Z,35
2022-08-24T02:05:48.871Z,35
2022-08-24T02:06:17.917Z,35
2022-08-24T02:06:49.094Z,35
2022-08-24T02:07:26.693Z,35
2022-08-24T02:07:50.608Z,35
2022-08-24T02:08:21.934Z,35
2022-08-24T02:08:53.593Z,35
2022-08-24T02:09:25.698Z,35
2022-08-24T02:09:55.632Z,35
2022-08-24T02:10:27.454Z,35
2022-08-24T02:10:57.213Z,35
2022-08-24T02:11:31.074Z,35
2022-08-24T02:11:58.656Z,35
2022-08-24T02:12:29.487Z,35
2022-08-24T02:13:01.261Z,35
2022-08-24T02:13:31.611Z,35
2022-08-24T02:14:03.351Z,35
2022-08-24T02:14:35.037Z,35
2022-08-24T02:15:07.552Z,35
2022-08-24T02:15:38.998Z,35
2022-08-24T02:16:07.808Z,35
2022-08-24T02:16:44.375Z,35
2022-08-24T02:17:08.822Z,35
2022-08-24T02:17:39.594Z,35
2022-08-24T02:18:15.346Z,35
2022-08-24T02:18:41.665Z,35
2022-08-24T02:19:13.019Z,35
2022-08-24T02:19:44.415Z,35
2022-08-24T02:20:15.825Z,35
2022-08-24T02:20:46.011Z,35
2022-08-24T02:21:16.759Z,35
2022-08-24T02:21:47.839Z,35
2022-08-24T02:22:18.541Z,35
2022-08-24T02:22:49.742Z,35
2022-08-24T02:23:24.877Z,35
2022-08-24T02:23:51.894Z,35
2022-08-24T02:24:23.032Z,35
2022-08-24T02:24:54.578Z,35
2022-08-24T02:25:25.781Z,35
2022-08-24T02:25:55.777Z,35
2022-08-24T02:26:30.379Z,35
2022-08-24T02:26:57.642Z,35
2022-08-24T02:27:28.912Z,35
2022-08-24T02:27:59.897Z,35
2022-08-24T02:28:30.926Z,35
2022-08-24T02:29:03.597Z,35
2022-08-24T02:29:32.770Z,35
2022-08-24T02:30:05.882Z,35
2022-08-24T02:30:35.532Z,35
2022-08-24T02:31:07.433Z,35
2022-08-24T02:31:37.158Z,35
2022-08-24T02:32:07.769Z,35
2022-08-24T02:32:38.868Z,35
2022-08-24T02:33:09.976Z,35
2022-08-24T02:34:11.934Z,35
2022-08-24T02:34:42.639Z,35
2022-08-24T02:35:15.095Z,35
2022-08-24T02:35:45.400Z,35
2022-08-24T02:36:25.050Z,35
2022-08-24T02:36:47.017Z,35
2022-08-24T02:37:24.188Z,35
2022-08-24T02:37:49.048Z,35
2022-08-24T02:38:20.898Z,35
2022-08-24T02:38:50.958Z,35
2022-08-24T02:39:22.034Z,35
2022-08-24T02:39:52.878Z,35
2022-08-24T02:40:28.030Z,35
2022-08-24T02:40:55.341Z,35
2022-08-24T02:41:26.399Z,35
2022-08-24T02:41:57.321Z,35
2022-08-24T02:42:27.623Z,35
2022-08-24T02:42:59.029Z,35
2022-08-24T02:43:29.938Z,35
2022-08-24T02:44:01.241Z,35
2022-08-24T02:44:31.864Z,35
2022-08-24T02:45:04.699Z,35
2022-08-24T02:45:34.917Z,35
2022-08-24T02:46:05.689Z,35
2022-08-24T02:46:36.670Z,35
2022-08-24T02:47:06.917Z,35
2022-08-24T02:47:48.221Z,35
2022-08-24T02:48:08.840Z,35
2022-08-24T02:48:39.703Z,35
2022-08-24T02:49:12.148Z,35
2022-08-24T02:49:41.875Z,35
2022-08-24T02:50:13.224Z,35
2022-08-24T02:50:43.771Z,35
2022-08-24T02:51:16.323Z,35
2022-08-24T02:51:47.113Z,35
2022-08-24T02:52:16.957Z,35
2022-08-24T02:52:47.899Z,35
2022-08-24T02:53:22.822Z,35
2022-08-24T02:53:49.989Z,35
2022-08-24T02:54:21.040Z,35
2022-08-24T02:54:55.797Z,35
2022-08-24T02:55:22.809Z,35
2022-08-24T02:56:04.720Z,35
2022-08-24T02:56:25.785Z,35
2022-08-24T02:56:56.986Z,35
2022-08-24T02:57:27.363Z,35
2022-08-24T02:57:58.911Z,35
2022-08-24T02:58:29.013Z,35
2022-08-24T02:59:00.042Z,35
2022-08-24T02:59:31.162Z,35
2022-08-24T03:00:10.200Z,35
2022-08-24T03:00:33.146Z,35
2022-08-24T03:01:04.843Z,35
2022-08-24T03:01:35.716Z,35
2022-08-24T03:02:06.821Z,35
2022-08-24T03:02:37.015Z,35
2022-08-24T03:03:07.835Z,35
2022-08-24T03:03:39.130Z,35
2022-08-24T03:04:10.769Z,35
2022-08-24T03:04:40.861Z,35
2022-08-24T03:05:42.840Z,35
2022-08-24T03:06:14.627Z,35
2022-08-24T03:06:46.872Z,35
2022-08-24T03:07:16.910Z,35
2022-08-24T03:07:47.054Z,35
2022-08-24T03:08:17.924Z,35
2022-08-24T03:08:49.351Z,35
2022-08-24T03:09:23.530Z,35
2022-08-24T03:10:24.978Z,35
2022-08-24T03:10:52.841Z,35
2022-08-24T03:11:27.313Z,35
2022-08-24T03:11:55.887Z,35
2022-08-24T03:12:26.741Z,35
2022-08-24T03:13:00.062Z,35
2022-08-24T03:13:28.073Z,35
2022-08-24T03:13:58.891Z,35
2022-08-24T03:14:32.033Z,35
2022-08-24T03:15:01.505Z,35
2022-08-24T03:15:31.981Z,35
2022-08-24T03:16:02.791Z,35
2022-08-24T03:16:36.062Z,35
2022-08-24T03:17:04.879Z,35
2022-08-24T03:17:43.168Z,35
2022-08-24T03:18:37.797Z,35
2022-08-24T03:19:09.293Z,35
2022-08-24T03:19:40.120Z,35
2022-08-24T03:20:11.582Z,35
2022-08-24T03:20:42.075Z,35
2022-08-24T03:21:44.510Z,35
2022-08-24T03:22:15.895Z,35
2022-08-24T03:22:47.765Z,35
2022-08-24T03:23:47.944Z,35
2022-08-24T03:24:18.911Z,35
2022-08-24T03:24:49.922Z,35
2022-08-24T03:25:20.886Z,35
2022-08-24T03:25:52.072Z,35
2022-08-24T03:26:22.904Z,35
2022-08-24T03:26:54.648Z,35
2022-08-24T03:27:26.530Z,35
2022-08-24T03:27:56.803Z,35
2022-08-24T03:28:27.503Z,35
2022-08-24T03:28:57.830Z,35
2022-08-24T03:29:29.204Z,35
2022-08-24T03:30:01.230Z,35
2022-08-24T03:30:31.309Z,35
2022-08-24T03:31:03.355Z,35
2022-08-24T03:31:33.144Z,35
2022-08-24T03:32:06.337Z,35
2022-08-24T03:32:36.640Z,35
2022-08-24T03:33:06.481Z,35
2022-08-24T03:33:38.466Z,35
2022-08-24T03:34:08.705Z,35
2022-08-24T03:34:39.193Z,35
2022-08-24T03:35:12.197Z,35
2022-08-24T03:35:41.095Z,35
2022-08-24T03:36:14.334Z,35
2022-08-24T03:36:42.930Z,35
2022-08-24T03:37:14.158Z,35
2022-08-24T03:37:45.535Z,35
2022-08-24T03:38:16.757Z,35
2022-08-24T03:38:48.019Z,35
2022-08-24T03:39:35.895Z,35
2022-08-24T03:39:49.464Z,35
2022-08-24T03:40:22.824Z,35
2022-08-24T03:40:54.009Z,35
2022-08-24T03:41:52.928Z,35
2022-08-24T03:42:41.248Z,35
2022-08-24T03:42:56.353Z,35
2022-08-24T03:43:26.872Z,35
2022-08-24T03:43:57.518Z,35
2022-08-24T03:44:27.910Z,35
2022-08-24T03:44:59.037Z,35
2022-08-24T03:45:30.377Z,35
2022-08-24T03:46:01.672Z,35
2022-08-24T03:46:32.291Z,35
2022-08-24T03:47:03.138Z,35
2022-08-24T03:47:34.112Z,35
2022-08-24T03:48:05.882Z,35
2022-08-24T03:48:37.164Z,35
2022-08-24T03:49:07.244Z,35
2022-08-24T03:49:39.434Z,35
2022-08-24T03:50:16.398Z,35
2022-08-24T03:50:40.514Z,35
2022-08-24T03:51:14.055Z,35
2022-08-24T03:51:46.385Z,35
2022-08-24T03:52:13.198Z,35
2022-08-24T03:53:15.884Z,35
2022-08-24T03:53:46.987Z,35
2022-08-24T03:54:17.406Z,35
2022-08-24T03:54:48.265Z,35
2022-08-24T03:55:19.185Z,35
2022-08-24T03:55:53.040Z,35
2022-08-24T03:56:21.018Z,35
2022-08-24T03:57:10.591Z,35
2022-08-24T03:57:23.264Z,35
2022-08-24T03:57:53.989Z,35
2022-08-24T03:58:25.836Z,35
2022-08-24T03:59:08.617Z,35
2022-08-24T03:59:29.241Z,35
2022-08-24T04:00:01.179Z,35
2022-08-24T04:00:30.374Z,35
2022-08-24T04:01:01.303Z,35
2022-08-24T04:01:31.261Z,35
2022-08-24T04:02:02.449Z,35
2022-08-24T04:02:36.282Z,35
2022-08-24T04:03:04.400Z,35
2022-08-24T04:03:35.400Z,35
2022-08-24T04:04:07.318Z,35
2022-08-24T04:04:38.364Z,35
2022-08-24T04:05:08.944Z,35
2022-08-24T04:05:39.575Z,35
2022-08-24T04:06:11.958Z,35
2022-08-24T04:06:41.119Z,35
2022-08-24T04:07:12.226Z,35
2022-08-24T04:07:44.965Z,35
2022-08-24T04:08:14.466Z,35
2022-08-24T04:08:45.160Z,35
2022-08-24T04:09:16.852Z,35
2022-08-24T04:09:49.081Z,35
2022-08-24T04:10:20.948Z,35
2022-08-24T04:10:50.323Z,35
2022-08-24T04:11:20.240Z,35
2022-08-24T04:11:51.983Z,35
2022-08-24T04:12:23.166Z,35
2022-08-24T04:12:57.084Z,35
2022-08-24T04:13:24.447Z,35
2022-08-24T04:13:55.256Z,35
2022-08-24T04:14:27.975Z,35
2022-08-24T04:14:58.051Z,35
2022-08-24T04:15:45.801Z,35
2022-08-24T04:15:59.614Z,35
2022-08-24T04:16:30.377Z,35
2022-08-24T04:17:01.457Z,35
2022-08-24T04:17:32.297Z,35
2022-08-24T04:18:07.477Z,35
2022-08-24T04:18:38.136Z,35
2022-08-24T04:19:05.247Z,35
2022-08-24T04:19:36.496Z,35
2022-08-24T04:20:07.737Z,35
2022-08-24T04:20:38.388Z,35
2022-08-24T04:21:10.071Z,35
2022-08-24T04:21:40.385Z,35
2022-08-24T04:22:18.099Z,35
2022-08-24T04:22:48.640Z,35
2022-08-24T04:23:16.639Z,35
2022-08-24T04:23:46.975Z,35
2022-08-24T04:24:16.425Z,35
2022-08-24T04:24:48.863Z,35
2022-08-24T04:25:20.649Z,35
2022-08-24T04:25:48.774Z,35
2022-08-24T04:26:28.693Z,35
2022-08-24T04:27:29.806Z,35
2022-08-24T04:27:55.187Z,35
2022-08-24T04:28:24.199Z,35
2022-08-24T04:28:58.826Z,35
2022-08-24T04:29:25.412Z,35
2022-08-24T04:29:56.578Z,35
2022-08-24T04:30:34.475Z,35
2022-08-24T04:30:59.765Z,35
2022-08-24T04:31:31.183Z,35
2022-08-24T04:32:01.263Z,35
2022-08-24T04:32:31.794Z,35
2022-08-24T04:33:02.477Z,35
2022-08-24T04:33:34.006Z,35
2022-08-24T04:34:04.624Z,35
2022-08-24T04:34:35.627Z,35
2022-08-24T04:35:07.951Z,35
2022-08-24T04:35:59.881Z,35
2022-08-24T04:36:10.034Z,35
2022-08-24T04:36:40.167Z,35
2022-08-24T04:37:11.568Z,35
2022-08-24T04:37:41.362Z,35
2022-08-24T04:38:12.552Z,35
2022-08-24T04:38:43.238Z,35
2022-08-24T04:39:14.343Z,35
2022-08-24T04:40:03.377Z,35
2022-08-24T04:40:16.877Z,35
2022-08-24T04:40:48.082Z,35
2022-08-24T04:41:19.159Z,35
2022-08-24T04:41:50.475Z,35
2022-08-24T04:42:20.732Z,35
2022-08-24T04:42:54.327Z,35
2022-08-24T04:43:22.852Z,35
2022-08-24T04:43:53.331Z,35
2022-08-24T04:44:24.415Z,35
2022-08-24T04:44:55.598Z,35
2022-08-24T04:45:26.567Z,35
2022-08-24T04:45:58.203Z,35
2022-08-24T04:46:28.382Z,35
2022-08-24T04:47:17.961Z,35
2022-08-24T04:47:31.144Z,35
2022-08-24T04:48:01.893Z,35
2022-08-24T04:48:49.692Z,35
2022-08-24T04:49:03.958Z,35
2022-08-24T04:49:35.507Z,35
2022-08-24T04:50:06.009Z,35
2022-08-24T04:50:37.123Z,35
2022-08-24T04:51:13.446Z,35
2022-08-24T04:51:39.042Z,35
2022-08-24T04:52:14.536Z,35
2022-08-24T04:52:44.116Z,35
2022-08-24T04:53:11.333Z,35
2022-08-24T04:53:42.504Z,35
2022-08-24T04:54:13.360Z,35
2022-08-24T04:55:15.577Z,35
2022-08-24T04:55:46.460Z,35
2022-08-24T04:56:18.451Z,35
2022-08-24T04:56:49.153Z,35
2022-08-24T04:57:19.468Z,35
2022-08-24T04:57:50.971Z,35
2022-08-24T04:58:24.421Z,35
2022-08-24T04:58:52.641Z,35
2022-08-24T04:59:27.142Z,35
2022-08-24T04:59:54.274Z,35
2022-08-24T05:01:01.304Z,35
2022-08-24T05:01:27.330Z,35
2022-08-24T05:02:03.123Z,35
2022-08-24T05:02:30.039Z,35
2022-08-24T05:03:10.132Z,35
2022-08-24T05:04:06.763Z,35
2022-08-24T05:04:35.825Z,35
2022-08-24T05:05:06.214Z,35
2022-08-24T05:05:35.864Z,35
2022-08-24T05:06:06.682Z,35
2022-08-24T05:06:55.541Z,35
2022-08-24T05:07:08.510Z,35
2022-08-24T05:07:39.691Z,35
2022-08-24T05:08:10.373Z,35
2022-08-24T05:08:46.881Z,35
2022-08-24T05:09:40.463Z,35
2022-08-24T05:09:44.063Z,35
2022-08-24T05:10:20.503Z,35
2022-08-24T05:11:16.860Z,35
2022-08-24T05:12:18.992Z,35
2022-08-24T05:12:49.431Z,35
2022-08-24T05:13:20.790Z,35
2022-08-24T05:13:51.546Z,35
2022-08-24T05:14:53.346Z,35
2022-08-24T05:15:43.088Z,35
2022-08-24T05:15:56.615Z,35
2022-08-24T05:16:27.044Z,35
2022-08-24T05:16:59.507Z,35
2022-08-24T05:17:31.541Z,35
2022-08-24T05:18:01.501Z,35
2022-08-24T05:18:30.540Z,35
2022-08-24T05:19:03.693Z,35
2022-08-24T05:19:32.507Z,35
2022-08-24T05:20:04.086Z,35
2022-08-24T05:23:01.041Z,35
2022-08-24T05:23:15.856Z,35
2022-08-24T05:23:45.075Z,35
2022-08-24T05:24:13.186Z,35
2022-08-24T05:24:43.187Z,35
2022-08-24T05:25:16.662Z,35
2022-08-24T05:25:50.617Z,35
2022-08-24T05:26:15.822Z,35
2022-08-24T05:26:47.027Z,35
2022-08-24T05:27:18.998Z,35
2022-08-24T05:27:48.612Z,35
2022-08-24T05:28:21.069Z,35
2022-08-24T05:29:22.426Z,35
2022-08-24T05:29:52.628Z,35
2022-08-24T05:30:25.611Z,35
2022-08-24T05:30:56.358Z,35
2022-08-24T05:31:26.091Z,35
2022-08-24T05:32:06.777Z,35
2022-08-24T05:32:38.958Z,35
2022-08-24T05:32:59.530Z,35
2022-08-24T05:33:31.021Z,35
2022-08-24T05:34:02.074Z,35
2022-08-24T05:34:32.496Z,35
2022-08-24T05:35:03.063Z,35
2022-08-24T05:35:37.291Z,35
2022-08-24T05:36:05.156Z,35
2022-08-24T05:36:35.739Z,35
2022-08-24T05:37:06.806Z,35
2022-08-24T05:37:37.637Z,35
2022-08-24T05:38:12.850Z,35
2022-08-24T05:38:40.849Z,35
2022-08-24T05:39:11.865Z,35
2022-08-24T05:39:42.425Z,35
2022-08-24T05:40:13.635Z,35
2022-08-24T05:40:43.432Z,35
2022-08-24T05:41:14.667Z,35
2022-08-24T05:41:45.404Z,35
2022-08-24T05:42:16.785Z,35
2022-08-24T05:42:47.718Z,35
2022-08-24T05:43:18.952Z,35
2022-08-24T05:43:50.567Z,35
2022-08-24T05:44:22.258Z,35
2022-08-24T05:44:52.442Z,35
2022-08-24T05:47:04.993Z,35
2022-08-24T05:47:26.956Z,35
2022-08-24T05:49:39.474Z,35
2022-08-24T05:50:04.759Z,35
2022-08-24T05:50:33.497Z,35
2022-08-24T05:51:03.668Z,35
2022-08-24T05:51:35.017Z,35
2022-08-24T05:52:05.663Z,35
2022-08-24T05:52:37.251Z,35
2022-08-24T05:53:08.214Z,35
2022-08-24T05:53:38.985Z,35
2022-08-24T05:54:10.225Z,35
2022-08-24T05:54:41.804Z,35
2022-08-24T05:55:12.729Z,35
2022-08-24T05:55:44.918Z,35
2022-08-24T05:56:13.674Z,35
2022-08-24T05:56:45.247Z,35
2022-08-24T05:57:15.506Z,35
2022-08-24T05:57:46.462Z,35
2022-08-24T05:58:22.854Z,35
2022-08-24T05:58:48.595Z,35
2022-08-24T05:59:19.672Z,35
2022-08-24T05:59:50.852Z,35
2022-08-24T06:00:26.014Z,35
2022-08-24T06:00:53.660Z,35
2022-08-24T06:01:57.622Z,35
2022-08-24T06:02:25.756Z,35
2022-08-24T06:02:56.646Z,35
2022-08-24T06:03:27.606Z,35
2022-08-24T06:03:58.561Z,35
2022-08-24T06:04:29.938Z,35
2022-08-24T06:05:01.429Z,35
2022-08-24T06:05:32.541Z,35
2022-08-24T06:06:03.699Z,35
2022-08-24T06:06:33.710Z,35
2022-08-24T06:07:05.295Z,35
2022-08-24T06:07:35.863Z,35
2022-08-24T06:08:06.664Z,35
2022-08-24T06:08:41.244Z,35
2022-08-24T06:09:16.059Z,35
2022-08-24T06:09:39.904Z,35
2022-08-24T06:10:36.452Z,35
2022-08-24T06:10:43.275Z,35
2022-08-24T06:11:34.808Z,35
2022-08-24T06:11:44.473Z,35
2022-08-24T06:12:15.269Z,35
2022-08-24T06:13:03.992Z,35
2022-08-24T06:13:16.784Z,35
2022-08-24T06:13:48.878Z,35
2022-08-24T06:14:18.781Z,35
2022-08-24T06:14:49.616Z,35
2022-08-24T06:15:21.125Z,35
2022-08-24T06:16:17.843Z,35
2022-08-24T06:16:24.092Z,35
2022-08-24T06:16:53.882Z,35
2022-08-24T06:17:24.901Z,35
2022-08-24T06:18:14.040Z,35
2022-08-24T06:18:26.792Z,35
2022-08-24T06:18:58.071Z,35
2022-08-24T06:19:29.043Z,35
2022-08-24T06:20:00.033Z,35
2022-08-24T06:20:30.796Z,35
2022-08-24T06:21:02.942Z,35
2022-08-24T06:21:33.739Z,35
2022-08-24T06:22:04.584Z,35
2022-08-24T06:22:34.888Z,35
2022-08-24T06:23:09.002Z,32
2022-08-24T06:23:36.662Z,33
2022-08-24T06:24:08.015Z,33
2022-08-24T06:24:38.582Z,33
2022-08-24T06:25:10.181Z,33
2022-08-24T06:25:40.898Z,33
2022-08-24T06:26:15.849Z,33
2022-08-24T06:26:43.924Z,33
2022-08-24T06:27:14.973Z,33
2022-08-24T06:27:45.043Z,33
2022-08-24T06:28:15.957Z,33
2022-08-24T06:29:17.782Z,33
2022-08-24T06:29:48.688Z,33
2022-08-24T06:30:20.953Z,33
2022-08-24T06:30:50.995Z,34
2022-08-24T06:31:26.193Z,35
2022-08-24T06:31:54.325Z,35
2022-08-24T06:32:26.804Z,35
2022-08-24T06:32:54.720Z,14
2022-08-24T06:33:25.909Z,14
2022-08-24T06:33:56.980Z,16
2022-08-24T06:34:27.940Z,16
2022-08-24T06:34:59.050Z,19
2022-08-24T06:35:30.279Z,19
2022-08-24T06:36:01.595Z,19
2022-08-24T06:36:31.920Z,19
2022-08-24T06:37:06.066Z,17
2022-08-24T06:37:34.340Z,17
2022-08-24T06:38:05.321Z,17
2022-08-24T06:38:39.071Z,16
2022-08-24T06:39:07.179Z,7
2022-08-24T06:39:45.755Z,13
2022-08-24T06:40:09.263Z,13
2022-08-24T06:40:39.827Z,13
2022-08-24T06:41:11.201Z,13
2022-08-24T06:41:41.751Z,13
2022-08-24T06:42:14.231Z,44
2022-08-24T06:42:44.824Z,43
2022-08-24T06:43:15.223Z,43
2022-08-24T06:43:46.016Z,43
2022-08-24T06:44:17.324Z,43
2022-08-24T06:44:47.905Z,43
2022-08-24T06:45:19.284Z,43
2022-08-24T06:45:49.942Z,43
2022-08-24T06:46:25.012Z,43
2022-08-24T06:46:51.824Z,43
2022-08-24T06:47:23.028Z,44
2022-08-24T06:47:54.992Z,44
2022-08-24T06:48:26.219Z,42
2022-08-24T06:49:14.385Z,42
2022-08-24T06:49:27.346Z,42
2022-08-24T06:49:58.467Z,42
2022-08-24T06:50:29.106Z,44
2022-08-24T06:51:00.094Z,43
2022-08-24T06:51:31.077Z,43
2022-08-24T06:52:02.349Z,43
2022-08-24T06:52:35.753Z,43
2022-08-24T06:53:05.604Z,43
2022-08-24T06:53:36.129Z,43
2022-08-24T06:54:06.936Z,43
2022-08-24T06:54:37.092Z,55
2022-08-24T06:55:08.514Z,50
2022-08-24T06:55:39.119Z,50
2022-08-24T06:56:10.434Z,14
2022-08-24T06:56:41.059Z,33
2022-08-24T06:57:12.112Z,34
2022-08-24T06:57:43.183Z,33
2022-08-24T06:58:14.931Z,33
2022-08-24T06:58:51.864Z,31
2022-08-24T06:59:16.324Z,31
2022-08-24T06:59:58.364Z,32
2022-08-24T07:00:18.973Z,32
2022-08-24T07:01:13.339Z,31
2022-08-24T07:01:20.018Z,32
2022-08-24T07:01:51.355Z,47
2022-08-24T07:02:22.003Z,45
2022-08-24T07:02:53.233Z,44
2022-08-24T07:03:24.901Z,43
2022-08-24T07:03:55.074Z,44
2022-08-24T07:04:28.121Z,48
2022-08-24T07:04:57.043Z,47
2022-08-24T07:05:29.305Z,47
2022-08-24T07:05:59.206Z,47
2022-08-24T07:06:30.599Z,46
2022-08-24T07:07:01.585Z,45
2022-08-24T07:07:32.075Z,45
2022-08-24T07:08:20.046Z,46
2022-08-24T07:08:35.541Z,46
2022-08-24T07:09:06.300Z,19
2022-08-24T07:09:36.399Z,19
2022-08-24T07:10:08.220Z,19
2022-08-24T07:10:38.042Z,20
2022-08-24T07:11:09.151Z,20
2022-08-24T07:11:40.374Z,20
2022-08-24T07:12:11.368Z,20
2022-08-24T07:12:41.853Z,20
2022-08-24T07:13:13.684Z,20
2022-08-24T07:13:45.669Z,20
2022-08-24T07:14:16.196Z,20
2022-08-24T07:14:52.176Z,20
2022-08-24T07:15:18.764Z,20
2022-08-24T07:15:48.144Z,20
2022-08-24T07:16:19.379Z,20
2022-08-24T07:16:50.187Z,20
2022-08-24T07:17:21.187Z,24
2022-08-24T07:17:52.194Z,26
2022-08-24T07:18:23.332Z,29
2022-08-24T07:19:11.390Z,24
2022-08-24T07:19:25.845Z,28
2022-08-24T07:19:56.640Z,31
2022-08-24T07:20:27.644Z,31
2022-08-24T07:20:58.014Z,32
2022-08-24T07:21:28.933Z,26
2022-08-24T07:22:01.260Z,31
2022-08-24T07:22:31.164Z,24
2022-08-24T07:23:02.957Z,24
2022-08-24T07:23:42.118Z,30
2022-08-24T07:24:04.290Z,30
2022-08-24T07:24:35.763Z,28
2022-08-24T07:25:07.356Z,28
2022-08-24T07:25:37.372Z,38
2022-08-24T07:26:10.714Z,40
2022-08-24T07:26:39.321Z,40
2022-08-24T07:27:13.127Z,43
2022-08-24T07:27:41.487Z,16
2022-08-24T07:28:31.989Z,24
2022-08-24T07:28:43.555Z,24
2022-08-24T07:29:36.805Z,39
2022-08-24T07:30:26.957Z,42
2022-08-24T07:30:47.637Z,39
2022-08-24T07:31:19.020Z,37
2022-08-24T07:31:48.997Z,49
2022-08-24T07:32:37.996Z,26
2022-08-24T07:32:53.168Z,26
2022-08-24T07:33:22.410Z,27
2022-08-24T07:33:53.050Z,38
2022-08-24T07:34:39.851Z,32
2022-08-24T07:34:55.797Z,19
2022-08-24T07:35:32.058Z,45
2022-08-24T07:36:32.851Z,42
2022-08-24T07:36:59.543Z,33
2022-08-24T07:37:41.397Z,27
2022-08-24T07:38:01.263Z,18
2022-08-24T07:39:03.232Z,18
2022-08-24T07:39:34.881Z,48
2022-08-24T07:40:06.526Z,48
2022-08-24T07:41:01.620Z,63